createdAt,value
2023-05-05T00:02:15.024Z,4.85
2023-05-05T00:07:17.059Z,4.65
2023-05-05T00:12:18.966Z,4.70
2023-05-05T00:17:20.769Z,4.10
2023-05-05T00:22:22.618Z,5.65
2023-05-05T00:27:24.439Z,5.35
2023-05-05T00:32:26.332Z,6.85
2023-05-05T00:37:28.261Z,5.43
2023-05-05T00:42:39.948Z,5.20
2023-05-05T00:47:59.157Z,5.20
2023-05-05T00:53:04.962Z,7.35
2023-05-05T00:58:06.844Z,5.05
2023-05-05T01:03:08.732Z,4.38
2023-05-05T01:08:36.081Z,6.38
2023-05-05T01:13:43.255Z,5.80
2023-05-05T01:18:54.192Z,3.75
2023-05-05T01:24:26.087Z,4.82
2023-05-05T01:29:46.876Z,5.03
2023-05-05T01:34:58.505Z,4.15
2023-05-05T01:40:06.045Z,5.55
2023-05-05T01:45:11.421Z,6.80
2023-05-05T01:50:15.163Z,5.05
2023-05-05T01:55:18.928Z,6.45
2023-05-05T02:00:22.749Z,5.88
2023-05-05T02:05:26.621Z,8.00
2023-05-05T02:10:29.235Z,9.18
2023-05-05T02:15:33.705Z,9.13
2023-05-05T02:20:38.441Z,8.45
2023-05-05T02:25:49.387Z,8.55
2023-05-05T02:30:59.650Z,8.63
2023-05-05T02:36:10.521Z,8.48
2023-05-05T02:41:16.787Z,9.02
2023-05-05T02:46:19.757Z,8.05
2023-05-05T02:51:21.617Z,9.90
2023-05-05T02:56:48.604Z,14.10
2023-05-05T03:02:21.811Z,13.50
2023-05-05T03:07:34.522Z,13.02
2023-05-05T03:12:50.961Z,13.73
2023-05-05T03:17:54.186Z,14.57
2023-05-05T03:22:56.159Z,10.18
2023-05-05T03:27:57.915Z,10.77
2023-05-05T03:32:59.671Z,11.18
2023-05-05T03:38:01.656Z,11.25
2023-05-05T03:43:03.651Z,11.98
2023-05-05T03:48:06.110Z,9.35
2023-05-05T03:53:08.058Z,9.30
2023-05-05T03:58:10.012Z,9.10
2023-05-05T04:03:12.247Z,9.75
2023-05-05T04:08:14.274Z,11.50
2023-05-05T04:13:16.140Z,10.93
2023-05-05T04:18:17.997Z,13.10
2023-05-05T04:23:19.745Z,9.23
2023-05-05T04:28:22.121Z,8.88
2023-05-05T04:33:24.021Z,10.48
2023-05-05T04:38:25.913Z,10.45
2023-05-05T04:43:28.188Z,10.48
2023-05-05T04:48:29.916Z,10.60
2023-05-05T04:53:31.963Z,11.93
2023-05-05T04:58:33.876Z,11.50
2023-05-05T05:03:36.703Z,12.55
2023-05-05T05:08:38.566Z,10.73
2023-05-05T05:13:40.350Z,9.77
2023-05-05T05:18:42.243Z,10.43
2023-05-05T05:23:43.986Z,11.00
2023-05-05T05:28:45.808Z,13.25
2023-05-05T05:33:47.616Z,13.60
2023-05-05T05:38:49.401Z,10.77
2023-05-05T05:43:51.240Z,12.95
2023-05-05T05:48:53.113Z,11.02
2023-05-05T05:53:55.438Z,11.27
2023-05-05T05:58:58.762Z,10.48
2023-05-05T06:04:00.587Z,14.32
2023-05-05T06:09:02.542Z,13.20
2023-05-05T06:14:04.460Z,9.38
2023-05-05T06:19:09.605Z,8.98
2023-05-05T06:24:11.901Z,11.57
2023-05-05T06:29:13.824Z,11.05
2023-05-05T06:34:15.660Z,11.70
2023-05-05T06:39:17.556Z,10.02
2023-05-05T06:44:19.481Z,11.00
2023-05-05T06:49:21.266Z,11.95
2023-05-05T06:54:23.163Z,8.90
2023-05-05T06:59:24.958Z,11.70
2023-05-05T07:04:26.916Z,6.50
2023-05-05T07:09:28.760Z,11.50
2023-05-05T07:14:30.665Z,7.50
2023-05-05T07:19:34.480Z,12.90
2023-05-05T07:24:36.270Z,8.38
2023-05-05T07:29:38.008Z,11.15
2023-05-05T07:34:40.401Z,5.63
2023-05-05T07:39:42.316Z,10.68
2023-05-05T07:44:44.190Z,7.45
2023-05-05T07:49:45.979Z,6.78
2023-05-05T07:54:48.893Z,9.07
2023-05-05T07:59:50.830Z,9.23
2023-05-05T08:04:52.600Z,6.90
2023-05-05T08:09:54.386Z,10.55
2023-05-05T08:14:56.134Z,6.85
2023-05-05T08:19:58.014Z,7.90
2023-05-05T08:24:59.830Z,10.05
2023-05-05T08:30:02.731Z,4.97
2023-05-05T08:35:06.203Z,7.55
2023-05-05T08:40:11.740Z,4.80
2023-05-05T08:45:13.635Z,6.18
2023-05-05T08:50:19.193Z,7.90
2023-05-05T08:55:25.714Z,6.93
2023-05-05T09:00:28.121Z,6.60
2023-05-05T09:05:29.903Z,8.98
2023-05-05T09:10:32.604Z,8.57
2023-05-05T09:15:34.652Z,12.40
2023-05-05T09:20:38.422Z,8.05
2023-05-05T09:25:41.658Z,7.13
2023-05-05T09:30:47.995Z,5.20
2023-05-05T09:35:51.949Z,5.30
2023-05-05T09:40:54.249Z,6.97
2023-05-05T09:46:08.431Z,4.32
2023-05-05T09:51:10.570Z,8.65
2023-05-05T09:56:12.628Z,5.25
2023-05-05T10:01:23.866Z,10.30
2023-05-05T10:06:47.108Z,10.00
2023-05-05T10:11:49.456Z,10.10
2023-05-05T10:16:52.912Z,4.45
2023-05-05T10:22:08.246Z,7.45
2023-05-05T10:27:17.876Z,4.90
2023-05-05T10:32:51.956Z,4.83
2023-05-05T10:37:50.992Z,5.30
2023-05-05T10:42:55.005Z,5.03
2023-05-05T10:48:00.826Z,6.57
2023-05-05T10:53:26.078Z,3.40
2023-05-05T10:58:55.620Z,6.38
2023-05-05T11:04:21.170Z,5.82
2023-05-05T11:09:29.897Z,4.82
2023-05-05T11:14:31.734Z,5.65
2023-05-05T11:19:42.649Z,3.20
2023-05-05T11:24:45.013Z,3.90
2023-05-05T11:30:09.426Z,4.47
2023-05-05T11:35:12.525Z,4.20
2023-05-05T11:40:23.795Z,7.40
2023-05-05T11:45:25.757Z,4.95
2023-05-05T11:50:27.756Z,3.50
2023-05-05T11:55:30.677Z,4.15
2023-05-05T12:00:33.830Z,2.90
2023-05-05T12:05:36.964Z,8.07
2023-05-05T12:10:39.254Z,5.47
2023-05-05T12:15:41.042Z,5.20
2023-05-05T12:20:42.854Z,7.47
2023-05-05T12:25:45.898Z,6.45
2023-05-05T12:31:00.274Z,3.65
2023-05-05T12:36:04.495Z,4.70
2023-05-05T12:41:06.486Z,2.85
2023-05-05T12:46:09.168Z,2.25
2023-05-05T12:51:20.057Z,1.33
2023-05-05T12:56:34.688Z,1.77
2023-05-05T13:01:50.857Z,1.33
2023-05-05T13:07:10.678Z,6.88
2023-05-05T13:12:12.673Z,5.68
2023-05-05T13:17:14.893Z,4.57
2023-05-05T13:22:16.867Z,6.55
2023-05-05T13:27:19.007Z,3.30
2023-05-05T13:32:20.888Z,2.90
2023-05-05T13:37:22.777Z,2.88
2023-05-05T13:42:24.706Z,4.97
2023-05-05T13:47:26.529Z,6.63
2023-05-05T13:52:29.837Z,1.52
2023-05-05T13:57:32.972Z,2.80
2023-05-05T14:02:34.815Z,1.52
2023-05-05T14:07:36.708Z,0.93
2023-05-05T14:12:38.776Z,1.27
2023-05-05T14:17:40.975Z,2.42
2023-05-05T14:22:43.985Z,1.77
2023-05-05T14:27:45.854Z,2.45
2023-05-05T14:32:47.758Z,9.00
2023-05-05T14:37:49.586Z,2.55
2023-05-05T14:42:51.402Z,2.20
2023-05-05T14:47:53.669Z,1.30
2023-05-05T14:52:55.510Z,2.08
2023-05-05T14:57:57.294Z,2.58
2023-05-05T15:02:59.183Z,2.13
2023-05-05T15:08:01.071Z,1.85
2023-05-05T15:13:03.114Z,4.53
2023-05-05T15:18:05.306Z,1.55
2023-05-05T15:23:07.144Z,2.90
2023-05-05T15:28:08.945Z,2.92
2023-05-05T15:33:10.790Z,2.28
2023-05-05T15:38:12.620Z,0.40
2023-05-05T15:43:14.458Z,1.17
2023-05-05T15:48:16.210Z,1.17
2023-05-05T15:53:17.988Z,2.40
2023-05-05T15:58:19.769Z,1.25
2023-05-05T16:03:21.823Z,3.50
2023-05-05T16:08:23.754Z,2.13
2023-05-05T16:13:25.538Z,3.08
2023-05-05T16:18:27.321Z,0.80
2023-05-05T16:23:29.089Z,3.83
2023-05-05T16:28:34.187Z,2.80
2023-05-05T16:33:40.584Z,1.77
2023-05-05T16:38:43.709Z,0.50
2023-05-05T16:43:46.258Z,2.08
2023-05-05T16:48:48.179Z,3.08
2023-05-05T16:53:50.143Z,2.22
2023-05-05T16:58:52.471Z,2.53
2023-05-05T17:03:55.630Z,3.13
2023-05-05T17:08:57.451Z,1.35
2023-05-05T17:13:59.271Z,7.28
2023-05-05T17:19:01.021Z,2.67
2023-05-05T17:24:02.762Z,2.47
2023-05-05T17:29:04.546Z,2.95
2023-05-05T17:34:06.351Z,2.53
2023-05-05T17:39:08.221Z,4.28
2023-05-05T17:44:10.008Z,4.85
2023-05-05T17:49:11.902Z,3.97
2023-05-05T17:54:13.646Z,7.10
2023-05-05T17:59:15.412Z,6.28
2023-05-05T18:04:17.519Z,3.90
2023-05-05T18:09:20.713Z,5.05
2023-05-05T18:14:23.798Z,4.65
2023-05-05T18:19:25.552Z,5.32
2023-05-05T18:24:28.130Z,6.38
2023-05-05T18:29:30.007Z,3.45
2023-05-05T18:34:31.975Z,3.95
2023-05-05T18:39:33.814Z,4.28
2023-05-05T18:44:35.683Z,5.15
2023-05-05T18:49:37.994Z,4.15
2023-05-05T18:54:39.765Z,4.55
2023-05-05T18:59:41.592Z,6.13
2023-05-05T19:04:43.628Z,8.38
2023-05-05T19:09:45.752Z,8.07
2023-05-05T19:14:47.578Z,9.85
2023-05-05T19:19:49.848Z,25.95
2023-05-05T19:24:51.703Z,12.20
2023-05-05T19:29:53.567Z,10.43
2023-05-05T19:34:55.811Z,10.43
2023-05-05T19:39:57.566Z,7.57
2023-05-05T19:44:59.381Z,10.35
2023-05-05T19:50:01.161Z,16.20
2023-05-05T19:55:03.004Z,23.58
2023-05-05T20:00:05.427Z,7.88
2023-05-05T20:05:07.648Z,10.13
2023-05-05T20:10:10.338Z,1.98
2023-05-05T20:15:12.412Z,1.95
2023-05-05T20:20:19.976Z,3.30
2023-05-05T20:25:21.906Z,2.30
2023-05-05T20:30:23.692Z,1.58
2023-05-05T20:35:26.172Z,2.78
2023-05-05T20:40:28.029Z,1.90
2023-05-05T20:45:31.750Z,3.25
2023-05-05T20:50:33.567Z,9.10
2023-05-05T20:55:35.718Z,3.50
2023-05-05T21:00:37.722Z,2.95
2023-05-05T21:05:42.914Z,2.67
2023-05-05T21:10:44.760Z,3.78
2023-05-05T21:15:46.566Z,4.18
2023-05-05T21:20:48.458Z,2.97
2023-05-05T21:25:50.248Z,4.10
2023-05-05T21:31:10.107Z,5.10
2023-05-05T21:36:17.470Z,2.97
2023-05-05T21:41:19.309Z,3.97
2023-05-05T21:46:21.249Z,1.65
2023-05-05T21:51:23.779Z,5.85
2023-05-05T21:56:25.719Z,2.88
2023-05-05T22:01:27.524Z,5.28
2023-05-05T22:06:29.335Z,1.98
2023-05-05T22:11:31.324Z,3.42
2023-05-05T22:16:33.190Z,3.20
2023-05-05T22:21:35.197Z,1.63
2023-05-05T22:26:39.809Z,4.57
2023-05-05T22:31:41.738Z,3.47
2023-05-05T22:36:43.497Z,4.00
2023-05-05T22:41:45.340Z,3.35
2023-05-05T22:46:47.398Z,4.05
2023-05-05T22:51:49.241Z,3.67
2023-05-05T22:56:51.001Z,1.98
2023-05-05T23:01:52.849Z,6.25
2023-05-05T23:06:54.638Z,2.13
2023-05-05T23:11:56.399Z,2.42
2023-05-05T23:16:58.216Z,3.42
2023-05-05T23:22:00.498Z,2.88
2023-05-05T23:27:02.284Z,2.28
2023-05-05T23:32:04.166Z,1.33
2023-05-05T23:37:06.450Z,3.42
2023-05-05T23:42:08.324Z,2.92
2023-05-05T23:47:10.373Z,4.57
2023-05-05T23:52:13.154Z,4.63
2023-05-05T23:57:16.024Z,2.17
